sensor_id;sensor_type;location;lat;lon;timestamp;P1;durP1;ratioP1;P2;durP2;ratioP2
35891;SDS011;21993;42.672;23.296;2023-03-02T00:01:47;4.70;;;4.00;;
35891;SDS011;21993;42.672;23.296;2023-03-02T00:04:16;6.07;;;4.50;;
35891;SDS011;21993;42.672;23.296;2023-03-02T00:06:44;5.93;;;3.80;;
35891;SDS011;21993;42.672;23.296;2023-03-02T00:09:10;7.17;;;4.20;;
35891;SDS011;21993;42.672;23.296;2023-03-02T00:11:36;5.80;;;4.20;;
35891;SDS011;21993;42.672;23.296;2023-03-02T00:14:02;5.30;;;4.17;;
35891;SDS011;21993;42.672;23.296;2023-03-02T00:16:28;3.90;;;3.50;;
35891;SDS011;21993;42.672;23.296;2023-03-02T00:18:53;5.30;;;3.50;;
35891;SDS011;21993;42.672;23.296;2023-03-02T00:21:19;4.30;;;3.33;;
35891;SDS011;21993;42.672;23.296;2023-03-02T00:23:44;4.70;;;3.30;;
35891;SDS011;21993;42.672;23.296;2023-03-02T00:26:10;6.17;;;3.43;;
35891;SDS011;21993;42.672;23.296;2023-03-02T00:28:35;3.43;;;3.10;;
35891;SDS011;21993;42.672;23.296;2023-03-02T00:31:04;6.47;;;3.40;;
35891;SDS011;21993;42.672;23.296;2023-03-02T00:33:30;3.67;;;3.13;;
35891;SDS011;21993;42.672;23.296;2023-03-02T00:35:56;3.90;;;3.47;;
35891;SDS011;21993;42.672;23.296;2023-03-02T00:38:21;4.53;;;3.73;;
35891;SDS011;21993;42.672;23.296;2023-03-02T00:40:47;3.70;;;3.30;;
35891;SDS011;21993;42.672;23.296;2023-03-02T00:43:13;7.67;;;4.03;;
35891;SDS011;21993;42.672;23.296;2023-03-02T00:45:39;4.50;;;3.53;;
35891;SDS011;21993;42.672;23.296;2023-03-02T00:48:04;5.20;;;3.83;;
35891;SDS011;21993;42.672;23.296;2023-03-02T00:50:30;4.60;;;3.77;;
35891;SDS011;21993;42.672;23.296;2023-03-02T00:52:56;3.80;;;3.20;;
35891;SDS011;21993;42.672;23.296;2023-03-02T00:55:21;3.80;;;3.40;;
35891;SDS011;21993;42.672;23.296;2023-03-02T00:57:46;5.27;;;4.10;;
35891;SDS011;21993;42.672;23.296;2023-03-02T01:00:19;4.17;;;3.53;;
35891;SDS011;21993;42.672;23.296;2023-03-02T01:02:48;4.23;;;3.43;;
35891;SDS011;21993;42.672;23.296;2023-03-02T01:05:15;4.50;;;3.80;;
35891;SDS011;21993;42.672;23.296;2023-03-02T01:07:41;5.23;;;4.07;;
35891;SDS011;21993;42.672;23.296;2023-03-02T01:10:07;6.03;;;4.10;;
35891;SDS011;21993;42.672;23.296;2023-03-02T01:12:33;4.30;;;3.57;;
35891;SDS011;21993;42.672;23.296;2023-03-02T01:14:58;3.43;;;3.13;;
35891;SDS011;21993;42.672;23.296;2023-03-02T01:17:23;5.17;;;3.27;;
35891;SDS011;21993;42.672;23.296;2023-03-02T01:19:50;3.90;;;3.33;;
35891;SDS011;21993;42.672;23.296;2023-03-02T01:22:16;5.30;;;3.27;;
35891;SDS011;21993;42.672;23.296;2023-03-02T01:24:42;4.37;;;2.70;;
35891;SDS011;21993;42.672;23.296;2023-03-02T01:27:08;3.63;;;3.03;;
35891;SDS011;21993;42.672;23.296;2023-03-02T01:29:34;3.23;;;2.93;;
35891;SDS011;21993;42.672;23.296;2023-03-02T01:32:00;3.73;;;2.70;;
35891;SDS011;21993;42.672;23.296;2023-03-02T01:34:26;5.63;;;2.77;;
35891;SDS011;21993;42.672;23.296;2023-03-02T01:36:52;2.60;;;2.30;;
35891;SDS011;21993;42.672;23.296;2023-03-02T01:39:17;2.97;;;2.70;;
35891;SDS011;21993;42.672;23.296;2023-03-02T01:41:46;3.30;;;2.70;;
35891;SDS011;21993;42.672;23.296;2023-03-02T01:47:15;2.67;;;2.40;;
35891;SDS011;21993;42.672;23.296;2023-03-02T01:50:11;2.70;;;2.50;;
35891;SDS011;21993;42.672;23.296;2023-03-02T01:52:45;3.10;;;2.50;;
35891;SDS011;21993;42.672;23.296;2023-03-02T01:55:13;3.00;;;2.70;;
35891;SDS011;21993;42.672;23.296;2023-03-02T01:57:43;3.33;;;2.77;;
35891;SDS011;21993;42.672;23.296;2023-03-02T02:00:13;2.33;;;2.13;;
35891;SDS011;21993;42.672;23.296;2023-03-02T02:02:43;3.43;;;2.47;;
35891;SDS011;21993;42.672;23.296;2023-03-02T02:05:09;2.90;;;2.70;;
35891;SDS011;21993;42.672;23.296;2023-03-02T02:07:41;3.47;;;2.77;;
35891;SDS011;21993;42.672;23.296;2023-03-02T02:10:07;3.20;;;2.63;;
35891;SDS011;21993;42.672;23.296;2023-03-02T02:12:34;3.00;;;2.70;;
35891;SDS011;21993;42.672;23.296;2023-03-02T02:14:59;3.27;;;2.83;;
35891;SDS011;21993;42.672;23.296;2023-03-02T02:17:26;2.50;;;2.30;;
35891;SDS011;21993;42.672;23.296;2023-03-02T02:28:24;2.40;;;2.20;;
35891;SDS011;21993;42.672;23.296;2023-03-02T02:31:03;3.00;;;2.67;;
35891;SDS011;21993;42.672;23.296;2023-03-02T02:33:34;2.67;;;2.47;;
35891;SDS011;21993;42.672;23.296;2023-03-02T02:36:03;2.87;;;2.20;;
35891;SDS011;21993;42.672;23.296;2023-03-02T02:38:33;2.50;;;2.27;;
35891;SDS011;21993;42.672;23.296;2023-03-02T02:41:02;3.10;;;2.60;;
35891;SDS011;21993;42.672;23.296;2023-03-02T02:43:31;2.60;;;2.40;;
35891;SDS011;21993;42.672;23.296;2023-03-02T02:45:57;2.77;;;2.50;;
35891;SDS011;21993;42.672;23.296;2023-03-02T02:48:24;2.50;;;2.30;;
35891;SDS011;21993;42.672;23.296;2023-03-02T02:50:54;2.47;;;2.10;;
35891;SDS011;21993;42.672;23.296;2023-03-02T02:56:07;2.60;;;2.10;;
35891;SDS011;21993;42.672;23.296;2023-03-02T02:58:42;2.57;;;2.37;;
35891;SDS011;21993;42.672;23.296;2023-03-02T03:01:16;2.53;;;2.33;;
35891;SDS011;21993;42.672;23.296;2023-03-02T03:03:53;2.30;;;2.10;;
35891;SDS011;21993;42.672;23.296;2023-03-02T03:06:25;2.40;;;2.20;;
35891;SDS011;21993;42.672;23.296;2023-03-02T03:09:02;3.00;;;2.80;;
35891;SDS011;21993;42.672;23.296;2023-03-02T03:11:30;3.00;;;2.70;;
35891;SDS011;21993;42.672;23.296;2023-03-02T03:16:28;3.97;;;2.37;;
35891;SDS011;21993;42.672;23.296;2023-03-02T03:18:56;2.67;;;2.47;;
35891;SDS011;21993;42.672;23.296;2023-03-02T03:21:26;2.73;;;2.43;;
35891;SDS011;21993;42.672;23.296;2023-03-02T03:23:52;3.57;;;2.80;;
35891;SDS011;21993;42.672;23.296;2023-03-02T03:26:17;2.80;;;2.43;;
35891;SDS011;21993;42.672;23.296;2023-03-02T03:28:43;3.03;;;2.40;;
35891;SDS011;21993;42.672;23.296;2023-03-02T03:31:08;3.67;;;2.13;;
35891;SDS011;21993;42.672;23.296;2023-03-02T03:33:34;2.37;;;2.17;;
35891;SDS011;21993;42.672;23.296;2023-03-02T03:35:59;7.17;;;2.67;;
35891;SDS011;21993;42.672;23.296;2023-03-02T03:38:25;3.77;;;2.50;;
35891;SDS011;21993;42.672;23.296;2023-03-02T03:40:50;2.67;;;2.43;;
35891;SDS011;21993;42.672;23.296;2023-03-02T03:43:16;2.50;;;2.30;;
35891;SDS011;21993;42.672;23.296;2023-03-02T03:45:41;2.50;;;2.30;;
35891;SDS011;21993;42.672;23.296;2023-03-02T03:48:07;2.60;;;2.20;;
35891;SDS011;21993;42.672;23.296;2023-03-02T03:50:33;5.10;;;2.77;;
35891;SDS011;21993;42.672;23.296;2023-03-02T03:52:58;4.33;;;2.53;;
35891;SDS011;21993;42.672;23.296;2023-03-02T03:55:23;2.50;;;2.07;;
35891;SDS011;21993;42.672;23.296;2023-03-02T03:57:52;3.87;;;3.37;;
35891;SDS011;21993;42.672;23.296;2023-03-02T04:00:18;4.00;;;2.73;;
35891;SDS011;21993;42.672;23.296;2023-03-02T04:02:44;3.10;;;2.53;;
35891;SDS011;21993;42.672;23.296;2023-03-02T04:05:09;3.17;;;2.37;;
35891;SDS011;21993;42.672;23.296;2023-03-02T04:07:35;3.67;;;2.40;;
35891;SDS011;21993;42.672;23.296;2023-03-02T04:10:02;3.90;;;2.47;;
35891;SDS011;21993;42.672;23.296;2023-03-02T04:12:30;3.50;;;2.97;;
35891;SDS011;21993;42.672;23.296;2023-03-02T04:15:00;3.40;;;2.93;;
35891;SDS011;21993;42.672;23.296;2023-03-02T04:17:26;3.87;;;3.30;;
35891;SDS011;21993;42.672;23.296;2023-03-02T04:19:53;3.00;;;2.70;;
35891;SDS011;21993;42.672;23.296;2023-03-02T04:22:19;3.90;;;2.63;;
35891;SDS011;21993;42.672;23.296;2023-03-02T04:24:45;5.67;;;2.53;;
35891;SDS011;21993;42.672;23.296;2023-03-02T04:27:12;3.13;;;2.50;;
35891;SDS011;21993;42.672;23.296;2023-03-02T04:29:38;2.40;;;2.20;;
35891;SDS011;21993;42.672;23.296;2023-03-02T04:32:04;2.50;;;2.30;;
35891;SDS011;21993;42.672;23.296;2023-03-02T04:34:30;2.33;;;2.10;;
35891;SDS011;21993;42.672;23.296;2023-03-02T04:36:56;2.40;;;2.20;;
35891;SDS011;21993;42.672;23.296;2023-03-02T04:39:21;2.57;;;2.37;;
35891;SDS011;21993;42.672;23.296;2023-03-02T04:41:48;2.97;;;2.47;;
35891;SDS011;21993;42.672;23.296;2023-03-02T04:44:14;3.03;;;2.67;;
35891;SDS011;21993;42.672;23.296;2023-03-02T04:46:40;4.57;;;3.10;;
35891;SDS011;21993;42.672;23.296;2023-03-02T04:49:06;3.33;;;3.00;;
35891;SDS011;21993;42.672;23.296;2023-03-02T04:51:33;4.83;;;2.73;;
35891;SDS011;21993;42.672;23.296;2023-03-02T04:54:05;4.60;;;3.60;;
35891;SDS011;21993;42.672;23.296;2023-03-02T04:56:32;4.43;;;3.20;;
35891;SDS011;21993;42.672;23.296;2023-03-02T04:58:58;6.60;;;4.80;;
35891;SDS011;21993;42.672;23.296;2023-03-02T05:01:24;9.20;;;6.50;;
35891;SDS011;21993;42.672;23.296;2023-03-02T05:03:51;6.87;;;3.77;;
35891;SDS011;21993;42.672;23.296;2023-03-02T05:06:17;5.87;;;4.33;;
35891;SDS011;21993;42.672;23.296;2023-03-02T05:08:43;8.27;;;5.53;;
35891;SDS011;21993;42.672;23.296;2023-03-02T05:11:10;6.30;;;5.30;;
35891;SDS011;21993;42.672;23.296;2023-03-02T05:13:46;5.00;;;4.23;;
35891;SDS011;21993;42.672;23.296;2023-03-02T05:16:12;7.80;;;4.10;;
35891;SDS011;21993;42.672;23.296;2023-03-02T05:18:37;5.10;;;4.57;;
35891;SDS011;21993;42.672;23.296;2023-03-02T05:21:03;6.17;;;4.50;;
35891;SDS011;21993;42.672;23.296;2023-03-02T05:23:29;9.50;;;6.27;;
35891;SDS011;21993;42.672;23.296;2023-03-02T05:25:55;6.77;;;5.20;;
35891;SDS011;21993;42.672;23.296;2023-03-02T05:28:22;5.57;;;4.57;;
35891;SDS011;21993;42.672;23.296;2023-03-02T05:30:49;6.83;;;4.97;;
35891;SDS011;21993;42.672;23.296;2023-03-02T05:33:15;14.00;;;7.77;;
35891;SDS011;21993;42.672;23.296;2023-03-02T05:35:41;11.87;;;6.90;;
35891;SDS011;21993;42.672;23.296;2023-03-02T05:38:07;9.90;;;6.87;;
35891;SDS011;21993;42.672;23.296;2023-03-02T05:40:33;7.70;;;5.23;;
35891;SDS011;21993;42.672;23.296;2023-03-02T05:43:00;11.83;;;7.73;;
35891;SDS011;21993;42.672;23.296;2023-03-02T05:45:26;10.30;;;6.67;;
35891;SDS011;21993;42.672;23.296;2023-03-02T05:47:54;6.33;;;5.47;;
35891;SDS011;21993;42.672;23.296;2023-03-02T05:50:21;7.27;;;5.23;;
35891;SDS011;21993;42.672;23.296;2023-03-02T05:52:47;6.83;;;5.20;;
35891;SDS011;21993;42.672;23.296;2023-03-02T05:55:13;7.00;;;5.57;;
35891;SDS011;21993;42.672;23.296;2023-03-02T05:57:40;7.37;;;5.80;;
35891;SDS011;21993;42.672;23.296;2023-03-02T06:00:06;6.10;;;5.07;;
35891;SDS011;21993;42.672;23.296;2023-03-02T06:02:32;8.53;;;6.23;;
35891;SDS011;21993;42.672;23.296;2023-03-02T06:04:57;6.80;;;5.43;;
35891;SDS011;21993;42.672;23.296;2023-03-02T06:07:23;7.47;;;5.80;;
35891;SDS011;21993;42.672;23.296;2023-03-02T06:09:48;21.03;;;13.13;;
35891;SDS011;21993;42.672;23.296;2023-03-02T06:12:15;9.03;;;6.30;;
35891;SDS011;21993;42.672;23.296;2023-03-02T06:14:42;8.07;;;5.93;;
35891;SDS011;21993;42.672;23.296;2023-03-02T06:17:08;7.90;;;6.27;;
35891;SDS011;21993;42.672;23.296;2023-03-02T06:19:34;6.80;;;5.17;;
35891;SDS011;21993;42.672;23.296;2023-03-02T06:21:59;6.87;;;5.77;;
35891;SDS011;21993;42.672;23.296;2023-03-02T06:24:24;7.80;;;5.30;;
35891;SDS011;21993;42.672;23.296;2023-03-02T06:26:51;8.53;;;6.07;;
35891;SDS011;21993;42.672;23.296;2023-03-02T06:29:18;7.77;;;5.77;;
35891;SDS011;21993;42.672;23.296;2023-03-02T06:31:43;8.70;;;5.77;;
35891;SDS011;21993;42.672;23.296;2023-03-02T06:34:08;6.30;;;5.57;;
35891;SDS011;21993;42.672;23.296;2023-03-02T06:36:34;8.00;;;5.97;;
35891;SDS011;21993;42.672;23.296;2023-03-02T06:39:03;7.37;;;5.60;;
35891;SDS011;21993;42.672;23.296;2023-03-02T06:41:29;7.57;;;5.63;;
35891;SDS011;21993;42.672;23.296;2023-03-02T06:43:54;12.63;;;6.33;;
35891;SDS011;21993;42.672;23.296;2023-03-02T06:46:20;8.27;;;6.50;;
35891;SDS011;21993;42.672;23.296;2023-03-02T06:48:45;10.17;;;6.13;;
35891;SDS011;21993;42.672;23.296;2023-03-02T06:51:11;7.23;;;6.00;;
35891;SDS011;21993;42.672;23.296;2023-03-02T06:53:36;11.47;;;6.87;;
35891;SDS011;21993;42.672;23.296;2023-03-02T06:56:02;9.77;;;7.07;;
35891;SDS011;21993;42.672;23.296;2023-03-02T06:58:28;8.47;;;6.63;;
35891;SDS011;21993;42.672;23.296;2023-03-02T07:00:53;11.03;;;7.50;;
35891;SDS011;21993;42.672;23.296;2023-03-02T07:03:18;9.30;;;6.77;;
35891;SDS011;21993;42.672;23.296;2023-03-02T07:05:44;8.67;;;6.23;;
35891;SDS011;21993;42.672;23.296;2023-03-02T07:08:09;8.83;;;7.10;;
35891;SDS011;21993;42.672;23.296;2023-03-02T07:10:36;9.37;;;7.20;;
35891;SDS011;21993;42.672;23.296;2023-03-02T07:13:01;9.43;;;7.20;;
35891;SDS011;21993;42.672;23.296;2023-03-02T07:15:27;11.23;;;6.73;;
35891;SDS011;21993;42.672;23.296;2023-03-02T07:17:52;13.83;;;6.80;;
35891;SDS011;21993;42.672;23.296;2023-03-02T07:20:18;12.37;;;7.27;;
35891;SDS011;21993;42.672;23.296;2023-03-02T07:22:44;9.90;;;7.10;;
35891;SDS011;21993;42.672;23.296;2023-03-02T07:25:10;11.43;;;6.93;;
35891;SDS011;21993;42.672;23.296;2023-03-02T07:27:36;9.90;;;7.30;;
35891;SDS011;21993;42.672;23.296;2023-03-02T07:30:02;9.43;;;6.83;;
35891;SDS011;21993;42.672;23.296;2023-03-02T07:32:29;11.20;;;7.30;;
35891;SDS011;21993;42.672;23.296;2023-03-02T07:34:54;10.00;;;6.80;;
35891;SDS011;21993;42.672;23.296;2023-03-02T07:37:20;6.83;;;6.10;;
35891;SDS011;21993;42.672;23.296;2023-03-02T07:39:46;8.77;;;6.27;;
35891;SDS011;21993;42.672;23.296;2023-03-02T07:42:13;9.00;;;5.83;;
35891;SDS011;21993;42.672;23.296;2023-03-02T07:44:38;14.07;;;6.63;;
35891;SDS011;21993;42.672;23.296;2023-03-02T07:47:04;8.47;;;5.80;;
35891;SDS011;21993;42.672;23.296;2023-03-02T07:49:30;9.57;;;6.33;;
35891;SDS011;21993;42.672;23.296;2023-03-02T07:51:55;8.17;;;6.43;;
35891;SDS011;21993;42.672;23.296;2023-03-02T07:54:20;10.77;;;6.57;;
35891;SDS011;21993;42.672;23.296;2023-03-02T07:56:46;11.37;;;7.20;;
35891;SDS011;21993;42.672;23.296;2023-03-02T07:59:12;8.37;;;6.23;;
35891;SDS011;21993;42.672;23.296;2023-03-02T08:01:38;8.07;;;6.93;;
35891;SDS011;21993;42.672;23.296;2023-03-02T08:04:03;7.67;;;5.77;;
35891;SDS011;21993;42.672;23.296;2023-03-02T08:06:29;9.07;;;6.40;;
35891;SDS011;21993;42.672;23.296;2023-03-02T08:08:55;10.47;;;6.20;;
35891;SDS011;21993;42.672;23.296;2023-03-02T08:11:21;9.53;;;6.43;;
35891;SDS011;21993;42.672;23.296;2023-03-02T08:13:46;9.80;;;7.00;;
35891;SDS011;21993;42.672;23.296;2023-03-02T08:16:13;13.20;;;6.90;;
35891;SDS011;21993;42.672;23.296;2023-03-02T08:18:40;8.90;;;6.43;;
35891;SDS011;21993;42.672;23.296;2023-03-02T08:21:16;8.60;;;6.77;;
35891;SDS011;21993;42.672;23.296;2023-03-02T08:23:43;11.77;;;6.87;;
35891;SDS011;21993;42.672;23.296;2023-03-02T08:26:09;14.67;;;6.73;;
35891;SDS011;21993;42.672;23.296;2023-03-02T08:28:35;10.40;;;7.17;;
35891;SDS011;21993;42.672;23.296;2023-03-02T08:31:02;8.90;;;5.77;;
35891;SDS011;21993;42.672;23.296;2023-03-02T08:33:28;9.17;;;6.33;;
35891;SDS011;21993;42.672;23.296;2023-03-02T08:38:39;10.77;;;6.40;;
35891;SDS011;21993;42.672;23.296;2023-03-02T08:41:05;7.57;;;5.47;;
35891;SDS011;21993;42.672;23.296;2023-03-02T08:43:34;8.37;;;5.77;;
35891;SDS011;21993;42.672;23.296;2023-03-02T08:45:59;9.10;;;5.93;;
35891;SDS011;21993;42.672;23.296;2023-03-02T08:48:25;9.20;;;6.60;;
35891;SDS011;21993;42.672;23.296;2023-03-02T08:51:02;8.43;;;6.27;;
35891;SDS011;21993;42.672;23.296;2023-03-02T08:53:31;13.00;;;7.33;;
35891;SDS011;21993;42.672;23.296;2023-03-02T08:55:57;9.10;;;6.50;;
35891;SDS011;21993;42.672;23.296;2023-03-02T08:58:23;12.03;;;7.10;;
35891;SDS011;21993;42.672;23.296;2023-03-02T09:00:49;12.10;;;7.10;;
35891;SDS011;21993;42.672;23.296;2023-03-02T09:03:14;9.63;;;7.20;;
35891;SDS011;21993;42.672;23.296;2023-03-02T09:05:40;9.30;;;7.17;;
35891;SDS011;21993;42.672;23.296;2023-03-02T09:08:06;11.63;;;7.77;;
35891;SDS011;21993;42.672;23.296;2023-03-02T09:10:32;10.17;;;7.43;;
35891;SDS011;21993;42.672;23.296;2023-03-02T09:12:58;11.03;;;7.17;;
35891;SDS011;21993;42.672;23.296;2023-03-02T09:15:23;9.90;;;6.83;;
35891;SDS011;21993;42.672;23.296;2023-03-02T09:17:49;8.90;;;6.90;;
35891;SDS011;21993;42.672;23.296;2023-03-02T09:20:14;11.97;;;7.60;;
35891;SDS011;21993;42.672;23.296;2023-03-02T09:22:39;11.70;;;7.50;;
35891;SDS011;21993;42.672;23.296;2023-03-02T09:25:11;10.43;;;7.00;;
35891;SDS011;21993;42.672;23.296;2023-03-02T09:27:37;11.20;;;7.67;;
35891;SDS011;21993;42.672;23.296;2023-03-02T09:30:02;9.93;;;7.67;;
35891;SDS011;21993;42.672;23.296;2023-03-02T09:32:28;10.93;;;7.17;;
35891;SDS011;21993;42.672;23.296;2023-03-02T09:34:53;9.33;;;7.83;;
35891;SDS011;21993;42.672;23.296;2023-03-02T09:37:19;11.63;;;8.40;;
35891;SDS011;21993;42.672;23.296;2023-03-02T09:39:44;10.33;;;8.10;;
35891;SDS011;21993;42.672;23.296;2023-03-02T09:52:39;9.53;;;6.97;;
35891;SDS011;21993;42.672;23.296;2023-03-02T09:57:43;8.47;;;6.20;;
35891;SDS011;21993;42.672;23.296;2023-03-02T10:02:43;9.37;;;6.97;;
35891;SDS011;21993;42.672;23.296;2023-03-02T10:05:22;8.80;;;6.63;;
35891;SDS011;21993;42.672;23.296;2023-03-02T10:07:51;7.50;;;6.73;;
35891;SDS011;21993;42.672;23.296;2023-03-02T10:15:13;11.80;;;7.13;;
35891;SDS011;21993;42.672;23.296;2023-03-02T10:17:49;9.23;;;6.93;;
35891;SDS011;21993;42.672;23.296;2023-03-02T10:20:33;9.17;;;7.27;;
35891;SDS011;21993;42.672;23.296;2023-03-02T10:23:38;8.73;;;6.50;;
35891;SDS011;21993;42.672;23.296;2023-03-02T10:28:46;11.60;;;7.60;;
35891;SDS011;21993;42.672;23.296;2023-03-02T10:31:27;8.63;;;6.67;;
35891;SDS011;21993;42.672;23.296;2023-03-02T10:33:54;12.20;;;6.63;;
35891;SDS011;21993;42.672;23.296;2023-03-02T10:36:25;7.70;;;5.80;;
35891;SDS011;21993;42.672;23.296;2023-03-02T10:38:55;6.93;;;6.03;;
35891;SDS011;21993;42.672;23.296;2023-03-02T10:41:27;8.60;;;5.60;;
35891;SDS011;21993;42.672;23.296;2023-03-02T10:44:00;7.63;;;5.70;;
35891;SDS011;21993;42.672;23.296;2023-03-02T10:46:40;7.37;;;5.33;;
35891;SDS011;21993;42.672;23.296;2023-03-02T10:51:59;16.20;;;8.83;;
35891;SDS011;21993;42.672;23.296;2023-03-02T10:54:27;11.00;;;7.07;;
35891;SDS011;21993;42.672;23.296;2023-03-02T10:57:01;10.80;;;7.03;;
35891;SDS011;21993;42.672;23.296;2023-03-02T10:59:44;7.60;;;5.57;;
35891;SDS011;21993;42.672;23.296;2023-03-02T11:02:18;9.03;;;6.03;;
35891;SDS011;21993;42.672;23.296;2023-03-02T11:04:47;8.03;;;5.60;;
35891;SDS011;21993;42.672;23.296;2023-03-02T11:07:17;7.60;;;5.70;;
35891;SDS011;21993;42.672;23.296;2023-03-02T11:10:03;8.93;;;5.67;;
35891;SDS011;21993;42.672;23.296;2023-03-02T11:12:44;7.73;;;5.60;;
35891;SDS011;21993;42.672;23.296;2023-03-02T11:20:37;7.17;;;5.20;;
35891;SDS011;21993;42.672;23.296;2023-03-02T11:23:12;7.77;;;5.80;;
35891;SDS011;21993;42.672;23.296;2023-03-02T11:25:39;9.60;;;6.00;;
35891;SDS011;21993;42.672;23.296;2023-03-02T11:30:58;8.20;;;5.47;;
35891;SDS011;21993;42.672;23.296;2023-03-02T11:33:41;7.53;;;5.20;;
35891;SDS011;21993;42.672;23.296;2023-03-02T11:36:17;7.33;;;5.87;;
35891;SDS011;21993;42.672;23.296;2023-03-02T11:38:52;6.93;;;5.90;;
35891;SDS011;21993;42.672;23.296;2023-03-02T11:41:29;7.17;;;5.40;;
35891;SDS011;21993;42.672;23.296;2023-03-02T11:44:00;8.60;;;5.53;;
35891;SDS011;21993;42.672;23.296;2023-03-02T11:46:32;9.80;;;5.90;;
35891;SDS011;21993;42.672;23.296;2023-03-02T11:49:10;6.83;;;5.80;;
35891;SDS011;21993;42.672;23.296;2023-03-02T11:51:55;6.90;;;5.30;;
35891;SDS011;21993;42.672;23.296;2023-03-02T11:57:17;8.90;;;5.37;;
35891;SDS011;21993;42.672;23.296;2023-03-02T11:59:47;9.47;;;5.73;;
35891;SDS011;21993;42.672;23.296;2023-03-02T12:02:14;7.70;;;5.87;;
35891;SDS011;21993;42.672;23.296;2023-03-02T12:04:40;6.13;;;5.53;;
35891;SDS011;21993;42.672;23.296;2023-03-02T12:07:17;7.43;;;5.37;;
35891;SDS011;21993;42.672;23.296;2023-03-02T12:09:58;7.53;;;5.13;;
35891;SDS011;21993;42.672;23.296;2023-03-02T12:20:44;6.90;;;4.77;;
35891;SDS011;21993;42.672;23.296;2023-03-02T12:23:20;9.33;;;5.87;;
35891;SDS011;21993;42.672;23.296;2023-03-02T12:25:47;8.63;;;5.57;;
35891;SDS011;21993;42.672;23.296;2023-03-02T12:28:30;7.67;;;5.27;;
35891;SDS011;21993;42.672;23.296;2023-03-02T12:31:10;8.83;;;5.37;;
35891;SDS011;21993;42.672;23.296;2023-03-02T12:33:39;10.27;;;5.10;;
35891;SDS011;21993;42.672;23.296;2023-03-02T12:36:23;9.13;;;5.50;;
35891;SDS011;21993;42.672;23.296;2023-03-02T12:38:57;7.87;;;6.07;;
35891;SDS011;21993;42.672;23.296;2023-03-02T12:46:55;7.83;;;5.37;;
35891;SDS011;21993;42.672;23.296;2023-03-02T12:55:41;5.60;;;4.30;;
35891;SDS011;21993;42.672;23.296;2023-03-02T12:58:14;8.13;;;4.60;;
35891;SDS011;21993;42.672;23.296;2023-03-02T13:00:47;6.10;;;4.53;;
35891;SDS011;21993;42.672;23.296;2023-03-02T13:03:17;7.57;;;4.77;;
35891;SDS011;21993;42.672;23.296;2023-03-02T13:05:43;7.60;;;4.70;;
35891;SDS011;21993;42.672;23.296;2023-03-02T13:08:28;6.20;;;3.90;;
35891;SDS011;21993;42.672;23.296;2023-03-02T13:11:04;5.90;;;4.63;;
35891;SDS011;21993;42.672;23.296;2023-03-02T13:13:34;5.13;;;3.80;;
35891;SDS011;21993;42.672;23.296;2023-03-02T13:16:20;5.20;;;4.17;;
35891;SDS011;21993;42.672;23.296;2023-03-02T13:18:48;8.30;;;4.43;;
35891;SDS011;21993;42.672;23.296;2023-03-02T13:21:18;7.13;;;4.37;;
35891;SDS011;21993;42.672;23.296;2023-03-02T13:23:45;6.17;;;4.20;;
35891;SDS011;21993;42.672;23.296;2023-03-02T13:26:31;5.27;;;4.30;;
35891;SDS011;21993;42.672;23.296;2023-03-02T13:29:15;5.20;;;4.07;;
35891;SDS011;21993;42.672;23.296;2023-03-02T13:31:47;4.50;;;3.70;;
35891;SDS011;21993;42.672;23.296;2023-03-02T13:34:18;5.07;;;4.57;;
35891;SDS011;21993;42.672;23.296;2023-03-02T13:36:46;4.87;;;4.00;;
35891;SDS011;21993;42.672;23.296;2023-03-02T13:39:30;5.67;;;3.80;;
35891;SDS011;21993;42.672;23.296;2023-03-02T13:42:00;7.27;;;4.27;;
35891;SDS011;21993;42.672;23.296;2023-03-02T13:44:27;6.33;;;4.90;;
35891;SDS011;21993;42.672;23.296;2023-03-02T13:46:57;5.93;;;4.60;;
35891;SDS011;21993;42.672;23.296;2023-03-02T13:49:24;9.73;;;4.90;;
35891;SDS011;21993;42.672;23.296;2023-03-02T13:51:55;7.67;;;4.63;;
35891;SDS011;21993;42.672;23.296;2023-03-02T13:54:25;4.83;;;3.80;;
35891;SDS011;21993;42.672;23.296;2023-03-02T13:56:55;7.93;;;4.30;;
35891;SDS011;21993;42.672;23.296;2023-03-02T13:59:22;9.13;;;4.00;;
35891;SDS011;21993;42.672;23.296;2023-03-02T14:01:48;6.70;;;4.07;;
35891;SDS011;21993;42.672;23.296;2023-03-02T14:04:14;4.93;;;4.00;;
35891;SDS011;21993;42.672;23.296;2023-03-02T14:06:42;7.10;;;5.13;;
35891;SDS011;21993;42.672;23.296;2023-03-02T14:09:08;7.13;;;5.00;;
35891;SDS011;21993;42.672;23.296;2023-03-02T14:11:37;7.77;;;5.60;;
35891;SDS011;21993;42.672;23.296;2023-03-02T14:14:05;11.50;;;5.30;;
35891;SDS011;21993;42.672;23.296;2023-03-02T14:16:32;6.50;;;5.10;;
35891;SDS011;21993;42.672;23.296;2023-03-02T14:19:00;9.77;;;5.37;;
35891;SDS011;21993;42.672;23.296;2023-03-02T14:21:25;8.43;;;6.20;;
35891;SDS011;21993;42.672;23.296;2023-03-02T14:23:51;11.60;;;5.87;;
35891;SDS011;21993;42.672;23.296;2023-03-02T14:31:39;12.20;;;6.13;;
35891;SDS011;21993;42.672;23.296;2023-03-02T14:34:04;11.23;;;6.90;;
35891;SDS011;21993;42.672;23.296;2023-03-02T14:36:31;12.03;;;8.10;;
35891;SDS011;21993;42.672;23.296;2023-03-02T14:38:58;14.83;;;8.13;;
35891;SDS011;21993;42.672;23.296;2023-03-02T14:41:25;11.83;;;7.97;;
35891;SDS011;21993;42.672;23.296;2023-03-02T14:43:52;10.60;;;7.23;;
35891;SDS011;21993;42.672;23.296;2023-03-02T14:46:17;14.37;;;8.00;;
35891;SDS011;21993;42.672;23.296;2023-03-02T14:48:43;13.93;;;8.57;;
35891;SDS011;21993;42.672;23.296;2023-03-02T14:51:21;19.67;;;8.57;;
35891;SDS011;21993;42.672;23.296;2023-03-02T14:53:50;12.43;;;7.70;;
35891;SDS011;21993;42.672;23.296;2023-03-02T14:56:17;12.10;;;8.53;;
35891;SDS011;21993;42.672;23.296;2023-03-02T14:58:46;11.23;;;8.27;;
35891;SDS011;21993;42.672;23.296;2023-03-02T15:01:12;11.83;;;8.13;;
35891;SDS011;21993;42.672;23.296;2023-03-02T15:03:37;12.57;;;8.43;;
35891;SDS011;21993;42.672;23.296;2023-03-02T15:06:03;13.87;;;8.83;;
35891;SDS011;21993;42.672;23.296;2023-03-02T15:08:30;12.90;;;8.30;;
35891;SDS011;21993;42.672;23.296;2023-03-02T15:10:56;14.10;;;9.17;;
35891;SDS011;21993;42.672;23.296;2023-03-02T15:13:22;16.27;;;8.20;;
35891;SDS011;21993;42.672;23.296;2023-03-02T15:15:47;11.43;;;7.10;;
35891;SDS011;21993;42.672;23.296;2023-03-02T15:18:13;10.37;;;7.50;;
35891;SDS011;21993;42.672;23.296;2023-03-02T15:20:41;10.87;;;7.30;;
35891;SDS011;21993;42.672;23.296;2023-03-02T15:23:06;15.20;;;7.47;;
35891;SDS011;21993;42.672;23.296;2023-03-02T15:25:32;9.73;;;7.07;;
35891;SDS011;21993;42.672;23.296;2023-03-02T15:27:57;12.03;;;6.37;;
35891;SDS011;21993;42.672;23.296;2023-03-02T15:30:23;12.87;;;6.97;;
35891;SDS011;21993;42.672;23.296;2023-03-02T15:32:51;10.07;;;7.37;;
35891;SDS011;21993;42.672;23.296;2023-03-02T15:35:18;8.97;;;7.10;;
35891;SDS011;21993;42.672;23.296;2023-03-02T15:37:44;11.60;;;7.23;;
35891;SDS011;21993;42.672;23.296;2023-03-02T15:40:10;11.73;;;7.43;;
35891;SDS011;21993;42.672;23.296;2023-03-02T15:42:36;10.60;;;6.73;;
35891;SDS011;21993;42.672;23.296;2023-03-02T15:45:02;10.23;;;6.93;;
35891;SDS011;21993;42.672;23.296;2023-03-02T15:47:28;10.43;;;7.43;;
35891;SDS011;21993;42.672;23.296;2023-03-02T15:49:54;12.73;;;6.97;;
35891;SDS011;21993;42.672;23.296;2023-03-02T15:52:19;12.43;;;7.67;;
35891;SDS011;21993;42.672;23.296;2023-03-02T15:54:45;11.50;;;7.40;;
35891;SDS011;21993;42.672;23.296;2023-03-02T15:57:11;14.20;;;7.33;;
35891;SDS011;21993;42.672;23.296;2023-03-02T15:59:36;10.33;;;7.07;;